Latest Coastal Weather Observations for Laverton

IDV60701

Issued at 6:05 am EDT Sunday 26 October 2014 (issued every 10 minutes, with the page automatically refreshed every 10 minutes)

About coastal observations | Map of coastal stations | Coastal observations for VIC | Marine services | Other Formats
Station Details ID: 087031 Name: LAVERTON RAAF Lat: -37.86 Lon: 144.76 Height: 20.1 m
Data from the previous 72 hours. | See also: Recent months at Laverton
Date/Time
EDT
Temp

°C
Wind Pressure Rain
since 9am
mm
Weather Cloud Vis
km
Sea
Height
m
Swell
Dir
 
Speed
knots
Gust
knots
hPa Trend Height
m
Period
s
Dir
26/06:00am 13.3 SSW 6 8 1013.4 - 0.0 - Cloudy 10 - - - -
26/05:30am 13.4 SSW 7 9 1013.5 - 0.0 - Cloudy 10 - - - -
26/05:00am 13.5 S 6 8 1013.4 - 0.0 - Cloudy 10 - - - -
26/04:30am 13.6 S 7 8 1013.4 - 0.0 - Cloudy 10 - - - -
26/04:00am 13.7 SSW 6 8 1013.4 - 0.0 - Cloudy 10 - - - -
26/03:30am 13.8 SSW 6 8 1013.4 - 0.0 - Cloudy 10 - - - -
26/03:00am 13.8 S 4 7 1013.3 - 0.0 - Cloudy 10 - - - -
26/02:30am 13.9 SSW 5 7 1013.7 - 0.0 - Cloudy 10 - - - -
26/02:00am 13.9 S 6 8 1014.3 - 0.0 - Cloudy 10 - - - -
26/01:30am 14.0 SSE 6 7 1014.8 - 0.0 - Cloudy 10 - - - -
26/01:00am 14.1 SSE 5 7 1015.3 - 0.0 - Cloudy 10 - - - -
26/12:30am 14.1 SSE 5 7 1015.4 - 0.0 - Cloudy 10 - - - -
26/12:00am 14.2 SSE 5 9 1015.8 - 0.0 - Cloudy 10 - - - -
 
Date/Time
EDT
Temp

°C
Wind Pressure Rain
since 9am
mm
Weather Cloud Vis
km
Sea
Height
m
Swell
Dir
 
Speed
knots
Gust
knots
hPa Trend Height
m
Period
s
Dir
25/11:30pm 14.2 SSE 6 9 1016.3 - 0.0 - Cloudy 10 - - - -
25/11:00pm 14.2 SSE 7 10 1016.5 - 0.0 - Cloudy 10 - - - -
25/10:30pm 14.2 S 7 9 1016.6 - 0.0 - Cloudy 10 - - - -
25/10:00pm 14.1 S 6 9 1016.9 - 0.0 - Cloudy 10 - - - -
25/09:30pm 13.6 S 6 7 1016.7 - 0.0 - Partly cloudy 10 - - - -
25/09:00pm 13.9 S 7 10 1016.4 - 0.0 - - 10 - - - -
25/08:30pm 14.1 S 9 12 1016.2 - 0.0 - Partly cloudy 10 - - - -
25/08:00pm 14.3 S 9 12 1016.1 - 0.0 - Partly cloudy 10 - - - -
25/07:30pm 14.8 S 11 16 1015.9 - 0.0 - Cloudy 10 - - - -
25/07:00pm 15.2 S 11 15 1015.7 - 0.0 - Cloudy 10 - - - -
25/06:30pm 15.3 S 11 16 1015.6 - 0.0 - - 10 - - - -
25/06:00pm 16.1 S 11 16 1015.3 - 0.0 - - 10 - - - -
25/05:30pm 16.7 S 13 16 1015.1 - 0.0 - - 10 - - - -
25/05:00pm 17.2 S 12 16 1015.1 - 0.0 - - 10 - - - -
25/04:30pm 17.5 SSE 11 15 1014.9 - 0.0 - - 10 - - - -
25/04:00pm 17.7 S 12 14 1014.9 - 0.0 - - 10 - - - -
25/03:30pm 18.3 SSE 8 12 1014.9 - 0.0 - - 10 - - - -
25/03:00pm 17.8 SSE 9 13 1015.3 - 0.0 - Partly cloudy 10 - - - -
25/02:30pm 17.9 SE 7 12 1015.6 - 0.0 - - 10 - - - -
25/02:00pm 17.7 SSE 5 7 1015.7 - 0.0 - - 10 - - - -
25/01:30pm 17.5 SSW 7 10 1016.2 - 0.0 - Partly cloudy 10 - - - -
25/01:00pm 16.4 WSW 5 8 1016.5 - 0.0 - Partly cloudy 10 - - - -
25/12:30pm 16.3 SE 5 8 1016.8 - 0.0 - Cloudy 10 - - - -
25/12:00pm 15.7 SSE 7 10 1017.3 - 0.0 - Cloudy 10 - - - -
25/11:30am 15.5 SSE 8 11 1017.6 - 0.0 - Cloudy 10 - - - -
25/11:00am 15.5 SE 8 11 1017.8 - 0.0 - Cloudy 10 - - - -
25/10:30am 15.0 SSE 9 11 1017.9 - 0.0 - Cloudy 10 - - - -
25/10:00am 14.8 S 10 14 1017.7 - 0.0 - Cloudy 10 - - - -
25/09:30am 15.0 S 9 13 1017.6 - 0.0 - Cloudy 10 - - - -
25/09:00am 14.9 S 6 8 1017.7 - 0.0 - Cloudy 10 - - - -
25/08:30am 14.6 SSW 6 7 1017.9 - 0.0 - Cloudy 10 - - - -
25/08:00am 14.6 S 6 9 1017.7 - 0.0 - Cloudy 10 - - - -
25/07:30am 14.5 S 6 9 1017.5 - 0.0 - Cloudy 10 - - - -
25/07:00am 14.4 S 7 9 1017.1 - 0.0 - Cloudy 10 - - - -
25/06:30am 14.5 SSW 6 7 1017.0 - 0.0 - Cloudy 10 - - - -
25/06:00am 14.6 SW 5 6 1016.8 - 0.0 - Cloudy 10 - - - -
25/05:30am 14.6 SW 6 8 1016.8 - 0.0 - Cloudy 10 - - - -
25/05:00am 14.6 WSW 5 8 1016.5 - 0.0 - Cloudy 10 - - - -
25/04:30am 14.5 SW 8 11 1016.3 - 0.0 - Cloudy 10 - - - -
25/04:00am 14.4 SW 7 9 1016.4 - 0.0 - Cloudy 10 - - - -
25/03:30am 14.5 SW 8 11 1016.4 - 0.0 - Cloudy 10 - - - -
25/03:00am 14.4 SW 7 9 1016.4 - 0.0 - Cloudy 10 - - - -
25/02:30am 14.2 SW 8 11 1016.6 - 0.0 - Cloudy 10 - - - -
25/02:00am 14.5 SSW 8 11 1016.6 - 0.0 - Cloudy 10 - - - -
25/01:30am 14.8 SW 9 14 1016.7 - 0.0 - Cloudy 10 - - - -
25/01:00am 14.9 SW 9 12 1016.8 - 0.0 - Cloudy 10 - - - -
25/12:30am 15.3 SW 7 10 1016.7 - 0.0 - Cloudy 10 - - - -
25/12:00am 15.3 SW 5 8 1016.6 - 0.0 - Mostly cloudy 10 - - - -
 
Date/Time
EDT
Temp

°C
Wind Pressure Rain
since 9am
mm
Weather Cloud Vis
km
Sea
Height
m
Swell
Dir
 
Speed
knots
Gust
knots
hPa Trend Height
m
Period
s
Dir
24/11:30pm 15.1 SW 5 7 1016.5 - 0.0 - Partly cloudy 10 - - - -
24/11:00pm 15.5 SSE 6 9 1016.5 - 0.0 - Cloudy 10 - - - -
24/10:40pm 15.5 SSE 7 9 1016.3 - 0.0 - Cloudy 10 - - - -
24/10:31pm 15.4 SSE 7 9 1016.2 - 0.0 - Partly cloudy 9 - - - -
24/10:30pm 15.4 SSE 7 9 1016.2 - 0.0 - Partly cloudy 9 - - - -
24/10:00pm 15.2 SSE 6 9 1015.8 - 0.0 - Cloudy 9 - - - -
24/09:30pm 15.2 S 8 13 1015.4 - 0.0 - Partly cloudy 9 - - - -
24/09:29pm 15.2 S 8 13 1015.3 - 0.0 - Partly cloudy 9 - - - -
24/09:01pm 15.4 S 11 15 1014.6 - 0.0 - Partly cloudy 10 - - - -
24/09:00pm 15.4 S 11 15 1014.6 - 0.0 - Mostly cloudy 10 - - - -
24/08:30pm 15.7 S 11 16 1013.7 - 0.0 - Cloudy 9 - - - -
24/08:29pm 15.7 S 11 16 1013.6 - 0.0 - Cloudy 9 - - - -
24/08:00pm 15.7 S 14 19 1013.1 - 0.0 - Partly cloudy 6 - - - -
24/07:55pm 15.7 S 13 18 1012.9 - 0.0 - Partly cloudy 6 - - - -
24/07:51pm 15.9 S 13 20 1012.8 - 0.0 - Partly cloudy 7 - - - -
24/07:30pm 17.6 S 12 17 1012.2 - 0.0 - - 10 - - - -
24/07:00pm 19.2 S 12 15 1011.5 - 0.0 - - 10 - - - -
24/06:30pm 21.1 S 13 16 1010.7 - 0.0 - - 10 - - - -
24/06:00pm 24.3 S 12 17 1010.2 - 0.0 - - 10 - - - -
24/05:30pm 26.0 SSE 11 17 1009.7 - 0.0 - - 10 - - - -
24/05:00pm 28.7 SE 9 13 1009.3 - 0.0 - - 10 - - - -
24/04:30pm 28.9 ESE 8 12 1009.3 - 0.0 - - 10 - - - -
24/04:00pm 29.5 SE 7 11 1009.4 - 0.0 - - 10 - - - -
24/03:30pm 28.8 SE 7 11 1009.7 - 0.0 - - 10 - - - -
24/03:00pm 27.8 SSE 8 10 1009.9 - 0.0 - - 10 - - - -
24/02:30pm 26.8 SSE 7 10 1010.3 - 0.0 - Partly cloudy 10 - - - -
24/02:00pm 24.3 SE 9 11 1010.6 - 0.0 - Partly cloudy 10 - - - -
24/01:30pm 26.8 ESE 7 10 1010.4 - 0.0 - - 10 - - - -
24/01:00pm 24.3 ESE 8 11 1010.6 - 0.0 - - 10 - - - -
24/12:30pm 25.4 SSE 7 11 1010.8 - 0.0 - - 10 - - - -
24/12:00pm 25.9 SE 5 8 1011.3 - 0.0 - Mostly cloudy 10 - - - -
24/11:30am 24.2 SW 3 5 1011.5 - 0.0 - - 10 - - - -
24/11:00am 22.4 SSW 4 8 1011.6 - 0.0 - - 10 - - - -
24/10:30am 21.1 W 5 6 1011.6 - 0.0 - - 10 - - - -
24/10:00am 19.1 WNW 5 7 1011.7 - 0.0 - - 10 - - - -
24/09:30am 17.7 W 3 6 1011.9 - 0.0 - - 10 - - - -
24/09:07am 17.1 NNE 2 5 1011.8 - 0.0 - Partly cloudy 10 - - - -
24/09:00am 16.5 N 4 7 1012.0 - 0.0 - Mostly clear 9 - - - -
24/08:30am 15.3 NNW 6 9 1012.2 - 0.0 - Cloudy 8 - - - -
24/08:00am 15.1 N 6 8 1012.3 - 0.0 - Cloudy 8 - - - -
24/07:30am 14.9 N 5 7 1012.3 - 0.0 - Cloudy 8 - - - -
24/07:00am 14.7 N 4 6 1012.3 - 0.0 - Cloudy 8 - - - -
24/06:30am 14.6 N 4 6 1012.4 - 0.0 - Cloudy 9 - - - -
24/06:14am 14.3 N 3 5 1012.2 - 0.0 - Cloudy 9 - - - -
24/06:00am 14.0 N 4 4 1012.0 - 0.0 - Cloudy 7 - - - -
24/05:30am 13.7 N 4 6 1012.3 - 0.0 - Cloudy 5 - - - -
24/05:13am 13.3 N 5 5 1012.3 - 0.0 - Partly cloudy 5 - - - -
24/05:00am 13.2 N 5 5 1012.4 - 0.0 - Partly cloudy 5 - - - -
24/04:37am 13.2 N 4 5 1012.5 - 0.0 - Partly cloudy 5 - - - -
24/04:30am 13.3 N 5 6 1012.5 - 0.0 - Partly cloudy 5 - - - -
24/04:09am 12.9 N 5 6 1012.4 - 0.0 - Partly cloudy 4 - - - -
24/04:00am 12.9 N 4 6 1012.4 - 0.0 - Partly cloudy 4 - - - -
24/03:30am 12.8 N 5 6 1012.6 - 0.0 - - 5 - - - -
24/03:06am 12.8 N 5 5 1012.7 - 0.0 - - 7 - - - -
24/03:00am 12.8 N 5 6 1012.8 - 0.0 - - 9 - - - -
24/02:30am 12.2 NNW 5 7 1013.1 - 0.0 - - 10 - - - -
24/02:00am 12.2 NW 6 7 1013.5 - 0.0 - - 10 - - - -
24/01:30am 12.4 NW 6 7 1014.0 - 0.0 - - 10 - - - -
24/01:00am 12.4 NNW 5 6 1014.4 - 0.0 - - 10 - - - -
24/12:30am 12.6 NW 6 8 1014.6 - 0.0 - - 10 - - - -
24/12:00am 12.5 NNW 5 6 1014.9 - 0.0 - - 10 - - - -
 
Date/Time
EDT
Temp

°C
Wind Pressure Rain
since 9am
mm
Weather Cloud Vis
km
Sea
Height
m
Swell
Dir
 
Speed
knots
Gust
knots
hPa Trend Height
m
Period
s
Dir
23/11:30pm 14.0 CALM 0 0 1015.1 - 0.0 - - 10 - - - -
23/11:00pm 15.1 SSE 3 4 1015.3 - 0.0 - - 10 - - - -
23/10:30pm 15.1 S 4 5 1015.5 - 0.0 - - 10 - - - -
23/10:00pm 15.4 SSE 5 8 1015.6 - 0.0 - - 10 - - - -
23/09:30pm 15.7 SE 6 8 1015.6 - 0.0 - - 10 - - - -
23/09:00pm 15.8 SE 9 12 1015.4 - 0.0 - - 10 - - - -
23/08:30pm 16.0 SE 9 13 1015.3 - 0.0 - - 10 - - - -
23/08:00pm 16.6 SE 10 14 1015.3 - 0.0 - - 10 - - - -
23/07:30pm 16.9 SE 12 18 1015.3 - 0.0 - - 10 - - - -
23/07:00pm 17.6 SE 13 20 1015.5 - 0.0 - - 10 - - - -
23/06:30pm 18.2 SSE 12 18 1015.4 - 0.0 - - 10 - - - -
23/06:00pm 18.5 SSE 10 14 1015.8 - 0.0 - Partly cloudy 10 - - - -
23/05:30pm 18.5 S 11 15 1015.9 - 0.0 - Partly cloudy 10 - - - -
23/05:00pm 18.3 S 11 14 1016.1 - 0.0 - Cloudy 10 - - - -
23/04:30pm 18.1 SSW 11 15 1016.5 - 0.0 - Cloudy 10 - - - -
23/04:00pm 18.1 S 10 14 1016.8 - 0.0 - Cloudy 10 - - - -
23/03:30pm 18.2 S 7 12 1017.1 - 0.0 - Cloudy 10 - - - -
23/03:00pm 17.6 S 7 10 1017.5 - 0.0 - Cloudy 10 - - - -
23/02:30pm 17.4 SSE 7 11 1018.0 - 0.0 - Cloudy 10 - - - -
23/02:00pm 16.7 SSE 9 13 1018.5 - 0.0 - Cloudy 10 - - - -
23/01:32pm 16.8 SSE 8 11 1018.6 - 0.0 - Cloudy 10 - - - -
23/01:30pm 16.8 SSE 8 11 1018.6 - 0.0 - Cloudy 10 - - - -
23/01:00pm 16.2 S 8 11 1019.1 - 0.0 - Partly cloudy 10 - - - -
23/12:30pm 15.2 SSE 9 11 1019.6 - 0.0 - Cloudy 10 - - - -
23/12:00pm 15.2 SSE 9 12 1019.8 - 0.0 - Cloudy 10 - - - -
23/11:30am 15.3 SSE 7 9 1020.0 - 0.0 - Cloudy 10 - - - -
23/11:00am 15.2 SSE 8 10 1020.3 - 0.0 - Cloudy 10 - - - -
23/10:33am 14.8 S 9 11 1020.5 - 0.0 - Partly cloudy 10 - - - -
23/10:30am 14.7 S 9 11 1020.5 - 0.0 - Cloudy 10 - - - -
23/10:00am 14.2 SSE 6 9 1020.6 - 0.0 - Partly cloudy 6 - - - -
23/09:30am 14.0 S 6 7 1020.8 - 0.0 - Cloudy 6 - - - -
23/09:00am 14.0 S 8 10 1020.6 - 0.0 - Cloudy 6 - - - -
23/08:35am 14.4 SSE 7 9 1020.7 - 0.0 - Cloudy 7 - - - -
23/08:30am 14.6 SSE 8 10 1020.7 - 0.0 - Cloudy 8 - - - -
23/08:00am 14.8 SSE 6 9 1020.3 - 0.0 - Cloudy 10 - - - -
23/07:30am 14.6 SSE 7 9 1020.1 - 0.0 - Cloudy 10 - - - -
23/07:17am 14.4 S 6 9 1020.2 - 0.0 - Cloudy 10 - - - -
23/07:00am 14.3 S 8 11 1020.0 - 0.0 - Cloudy 6 - - - -
23/06:31am 14.5 S 8 11 1019.8 - 0.0 - Cloudy 7 - - - -
23/06:30am 14.5 S 8 11 1019.8 - 0.0 - Cloudy 8 - - - -

Other Formats:

Comma delimited format used in spreadsheet applications
http://www.bom.gov.au/fwo/IDV60701/IDV60701.94865.axf

JavaScript Object Notation format (JSON) in row-major order
http://www.bom.gov.au/fwo/IDV60701/IDV60701.94865.json